KTRI/TRI METAR and TAF weather

Enter ICAO airport designator
Station Type Date Time Source
KTRI METAR 2019/10/23 07:53 UTC NOAA

KTRI 230753Z 27004KT 10SM OVC070 09/04 A3008 RMK AO2 SLP170 T00940039


Station Type Date Time Source
KTRI Decoded METAR 2019/10/23 07:53 UTC NOAA

TRI-CITY REGIONAL AIRPORT, TN, United States (KTRI) 36-28N 082-24W 474M
Oct 23, 2019 - 03:53 AM EDT / 2019.10.23 0753 UTC
Wind: from the W (270 degrees) at 5 MPH (4 KT):0
Visibility: 10 mile(s):0
Sky conditions: overcast
Temperature: 48.9 F (9.4 C)
Dew Point: 39.0 F (3.9 C)
Relative Humidity: 68%
Pressure (altimeter): 30.08 in. Hg (1018 hPa)
ob: KTRI 230753Z 27004KT 10SM OVC070 09/04 A3008 RMK AO2 SLP170 T00940039
cycle: 8

Station Type Date Time Source
KTRI TAF 2019/10/23 05:59 UTC NOAA

TAF
AMD KTRI 230459Z 2305/2324 25003KT P6SM SKC
FM231400 26006KT P6SM SKC

Example: see airport list